Time;durP1;ratioP1;P1;durP2;ratioP2;P2;SDS_P1;SDS_P2;PMS_P1;PMS_P2;Temp;Humidity;BMP_temperature;BMP_pressure;BME280_temperature;BME280_humidity;BME280_pressure;Samples;Min_cycle;Max_cycle;Signal;HPM_P1;HPM_P2
2021/12/22 00:00:56;;;;;;;28.20;14.60;;;-2.40;81.60;;;-1.89;62.85;98402.78;5026904;28;20057;-48
2021/12/22 00:03:24;;;;;;;31.17;14.87;;;-2.40;82.30;;;-1.88;62.92;98407.94;5026980;28;20228;-48
2021/12/22 00:05:52;;;;;;;28.40;14.77;;;-2.30;82.80;;;-1.88;62.90;98405.31;5025846;28;20364;-52
2021/12/22 00:08:22;;;;;;;22.80;12.87;;;-2.30;82.30;;;-1.87;63.50;98406.16;5027186;28;20063;-49
2021/12/22 00:10:49;;;;;;;22.83;12.13;;;-2.30;82.30;;;-1.89;62.91;98400.16;5027356;28;20351;-48
2021/12/22 00:13:17;;;;;;;16.73;10.27;;;-2.30;81.50;;;-1.90;62.65;98391.50;5026890;28;20057;-49
2021/12/22 00:15:45;;;;;;;27.47;13.83;;;-2.40;82.00;;;-1.91;63.35;98395.00;5025519;28;20057;-48
2021/12/22 00:18:13;;;;;;;29.47;14.37;;;-2.30;82.30;;;-1.88;63.63;98397.50;5027182;28;20061;-48
2021/12/22 00:20:40;;;;;;;20.17;11.57;;;-2.30;82.30;;;-1.88;63.03;98392.28;5026230;28;20053;-46
2021/12/22 00:23:08;;;;;;;20.57;11.20;;;-2.30;81.80;;;-1.90;63.04;98390.63;5025656;28;20232;-47
2021/12/22 00:25:36;;;;;;;20.90;10.93;;;-2.30;81.40;;;-1.93;62.46;98386.38;5027090;28;20049;-47
2021/12/22 00:28:04;;;;;;;36.17;17.37;;;-2.40;81.70;;;-1.95;62.77;98377.78;5025364;28;20356;-48
2021/12/22 00:30:32;;;;;;;34.83;16.30;;;-2.40;81.70;;;-1.95;62.85;98376.94;5027372;28;20083;-47
2021/12/22 00:33:05;;;;;;;30.17;15.13;;;-2.40;81.70;;;-1.93;62.96;98382.94;5025934;28;20056;-46
2021/12/22 00:35:40;;;;;;;32.87;16.73;;;-2.40;81.20;;;-2.03;62.29;98392.91;5026516;28;20060;-48
2021/12/22 00:38:15;;;;;;;24.93;13.60;;;-2.50;80.40;;;-2.12;62.65;98396.75;5025889;28;20276;-46
2021/12/22 00:40:44;;;;;;;19.87;11.43;;;-2.60;81.70;;;-2.14;62.64;98395.13;5027667;28;20058;-47
2021/12/22 00:43:13;;;;;;;17.53;11.63;;;-2.60;82.20;;;-2.16;62.54;98395.19;5027117;28;20060;-48
2021/12/22 00:45:41;;;;;;;26.17;12.37;;;-2.60;81.10;;;-2.16;62.77;98394.34;5023636;28;20063;-50
2021/12/22 00:48:11;;;;;;;19.50;11.30;;;-2.60;82.10;;;-2.16;62.63;98395.19;5025540;28;20057;-47
2021/12/22 00:50:40;;;;;;;21.67;12.37;;;-2.60;82.30;;;-2.14;63.05;98395.97;5026563;28;20067;-48
2021/12/22 00:53:08;;;;;;;24.87;13.77;;;-2.50;83.00;;;-2.16;63.19;98392.56;5025359;28;20052;-47
2021/12/22 00:55:36;;;;;;;30.90;17.57;;;-2.60;83.70;;;-2.15;63.55;98396.88;5025856;28;20060;-46
2021/12/22 00:58:04;;;;;;;27.93;15.07;;;-2.60;84.40;;;-2.12;63.47;98393.28;5025846;28;20050;-46
2021/12/22 01:00:32;;;;;;;26.90;13.47;;;-2.60;85.00;;;-2.10;63.74;98392.31;5026187;28;20061;-47
2021/12/22 01:03:02;;;;;;;24.30;13.17;;;-2.50;85.50;;;-2.07;63.98;98396.56;5026124;28;20049;-50
2021/12/22 01:05:31;;;;;;;25.20;12.20;;;-2.50;86.30;;;-2.04;64.38;98394.66;5026176;28;20041;-47
2021/12/22 01:07:59;;;;;;;23.77;13.00;;;-2.40;86.50;;;-2.01;63.65;98396.31;5025782;28;20063;-49
2021/12/22 01:10:30;;;;;;;20.27;12.97;;;-2.40;86.50;;;-1.99;64.01;98395.31;5025882;28;20045;-47
2021/12/22 01:13:01;;;;;;;21.30;12.23;;;-2.40;86.50;;;-1.96;64.10;98383.06;5026570;28;20253;-47
2021/12/22 01:15:30;;;;;;;25.13;14.93;;;-2.30;86.70;;;-1.95;64.09;98380.38;5026495;28;20059;-47
2021/12/22 01:18:17;;;;;;;22.10;13.37;;;-2.30;87.00;;;-1.92;63.86;98390.72;5029720;28;20049;-46
2021/12/22 01:23:23;;;;;;;17.70;11.43;;;-2.30;87.50;;;-1.91;64.46;98389.78;5028557;28;20041;-48
2021/12/22 01:25:51;;;;;;;20.27;11.77;;;-2.30;87.40;;;-1.89;64.00;98389.72;5028825;28;20360;-46
2021/12/22 01:28:23;;;;;;;23.37;12.13;;;-2.30;87.30;;;-1.89;63.84;98394.94;5029682;28;20055;-47
2021/12/22 01:30:52;;;;;;;19.37;12.40;;;-2.30;87.30;;;-1.89;64.05;98394.94;5030255;28;20063;-47
2021/12/22 01:33:20;;;;;;;22.60;12.60;;;-2.30;87.40;;;-1.87;64.70;98396.56;5029181;28;20053;-48
2021/12/22 01:35:47;;;;;;;19.13;11.10;;;-2.30;87.70;;;-1.87;64.57;98398.31;5028873;28;20072;-46
2021/12/22 01:38:15;;;;;;;22.87;11.77;;;-2.30;87.70;;;-1.86;64.51;98394.78;5028479;28;20382;-47
2021/12/22 01:40:46;;;;;;;18.93;11.50;;;-2.30;88.20;;;-1.85;64.37;98392.13;5045623;28;20059;-48
2021/12/22 01:43:16;;;;;;;19.40;12.37;;;-2.30;87.90;;;-1.85;64.47;98393.88;5029478;28;20064;-46
2021/12/22 01:52:00;;;;;;;17.90;11.90;;;-2.30;88.70;;;-1.85;64.80;98389.50;5029484;28;20045;-46
2021/12/22 01:54:58;;;;;;;15.87;10.57;;;-2.30;88.30;;;-1.87;64.26;98393.09;5029991;28;20047;-49
2021/12/22 01:57:26;;;;;;;17.20;11.47;;;-2.30;88.30;;;-1.89;64.17;98387.09;5029510;28;20051;-46
2021/12/22 01:59:54;;;;;;;18.83;10.57;;;-2.40;87.80;;;-1.91;64.65;98402.81;5029189;28;20061;-48
2021/12/22 02:02:22;;;;;;;20.80;10.87;;;-2.40;87.70;;;-1.95;64.00;98403.03;5030537;28;20486;-47
2021/12/22 02:04:50;;;;;;;18.13;11.40;;;-2.40;88.00;;;-1.98;64.76;98409.22;5028539;28;20041;-47
2021/12/22 02:07:18;;;;;;;21.20;12.57;;;-2.50;87.90;;;-2.02;64.21;98407.66;5030087;28;20049;-48
2021/12/22 02:12:17;;;;;;;19.37;11.87;;;-2.50;88.30;;;-2.07;64.24;98407.84;5029821;28;20062;-47
2021/12/22 02:14:46;;;;;;;16.37;10.33;;;-2.60;87.90;;;-2.09;64.60;98412.28;5013352;28;20371;-46
2021/12/22 02:17:14;;;;;;;18.53;10.97;;;-2.60;88.00;;;-2.12;64.81;98407.19;5007725;28;20068;-47
2021/12/22 02:19:47;;;;;;;25.93;12.83;;;-2.60;88.00;;;-2.13;64.05;98413.31;5009790;28;20255;-47
2021/12/22 02:22:17;;;;;;;25.57;10.60;;;-2.60;88.00;;;-2.15;64.68;98416.88;5009311;28;20267;-47
2021/12/22 02:24:55;;;;;;;17.80;10.70;;;-2.70;88.00;;;-2.17;64.16;98414.38;5008642;28;20053;-49
2021/12/22 02:27:36;;;;;;;17.17;10.83;;;-2.70;87.90;;;-2.21;64.53;98413.63;5007127;28;20057;-47
2021/12/22 02:30:14;;;;;;;21.13;11.03;;;-2.70;87.70;;;-2.22;64.19;98408.47;5009067;28;20382;-50
2021/12/22 02:35:11;;;;;;;20.40;11.80;;;-2.70;88.00;;;-2.24;64.08;98405.94;5009867;28;20050;-48
2021/12/22 02:37:44;;;;;;;18.00;10.80;;;-2.70;87.90;;;-2.22;64.81;98404.09;5007454;28;20262;-47
2021/12/22 02:40:18;;;;;;;24.23;12.38;;;-2.70;87.70;;;-2.23;64.04;98404.16;5009869;28;20264;-48
2021/12/22 02:42:47;;;;;;;18.08;11.18;;;-2.70;87.50;;;-2.23;64.18;98398.94;5009104;28;20049;-49
2021/12/22 02:45:18;;;;;;;19.27;10.63;;;-2.70;87.60;;;-2.23;64.42;98396.34;5008798;28;20374;-48
2021/12/22 02:47:47;;;;;;;22.30;12.13;;;-2.70;88.00;;;-2.23;64.42;98391.13;5007583;28;20050;-47
2021/12/22 02:50:16;;;;;;;22.03;11.37;;;-2.70;87.80;;;-2.22;64.14;98398.03;5007803;28;20365;-48
2021/12/22 02:53:06;;;;;;;23.17;11.43;;;-2.70;87.80;;;-2.22;64.58;98393.66;5008431;28;20072;-50
2021/12/22 02:58:30;;;;;;;16.97;10.60;;;-2.60;87.70;;;-2.19;64.65;98390.94;5008402;28;20060;-48
2021/12/22 03:06:22;;;;;;;21.07;11.20;;;-2.60;87.20;;;-2.16;64.71;98394.34;5008279;28;20046;-49
2021/12/22 03:08:50;;;;;;;17.60;10.90;;;-2.60;87.20;;;-2.21;64.46;98392.78;5008032;28;20050;-47
2021/12/22 03:11:18;;;;;;;19.33;10.73;;;-2.70;87.00;;;-2.21;64.28;98386.69;5009227;28;20042;-48
2021/12/22 03:13:46;;;;;;;22.77;11.47;;;-2.70;87.90;;;-2.19;64.38;98385.72;5009136;28;20053;-46
2021/12/22 03:16:16;;;;;;;20.63;11.77;;;-2.60;88.20;;;-2.12;64.92;98396.75;5007096;28;20052;-48
2021/12/22 03:18:45;;;;;;;17.90;11.87;;;-2.50;88.40;;;-2.08;64.91;98392.25;5006105;28;20057;-46
2021/12/22 03:21:31;;;;;;;19.00;11.40;;;-2.50;88.20;;;-2.07;64.35;98393.97;5008730;28;20054;-48
2021/12/22 03:23:59;;;;;;;18.33;10.43;;;-2.50;87.80;;;-2.07;64.81;98393.97;5008642;28;20056;-47
2021/12/22 03:26:28;;;;;;;20.33;11.30;;;-2.50;88.00;;;-2.06;64.42;98404.31;5007830;28;20046;-48
2021/12/22 03:28:56;;;;;;;18.07;10.10;;;-2.50;88.50;;;-2.03;64.95;98401.59;5008467;28;20054;-47
2021/12/22 03:31:24;;;;;;;18.33;10.93;;;-2.40;88.50;;;-2.04;64.52;98402.47;5007111;28;20062;-48
2021/12/22 03:33:52;;;;;;;19.57;12.13;;;-2.40;87.90;;;-2.05;64.77;98403.41;5008046;28;20071;-47
2021/12/22 03:36:20;;;;;;;17.77;10.83;;;-2.50;87.70;;;-2.07;64.65;98412.22;5006993;28;20064;-50
2021/12/22 03:38:48;;;;;;;21.20;11.27;;;-2.50;87.60;;;-2.07;65.11;98418.28;5007171;28;20088;-47
2021/12/22 03:41:16;;;;;;;23.90;11.50;;;-2.50;88.00;;;-2.08;64.41;98416.56;5008823;28;20360;-47
2021/12/22 03:43:44;;;;;;;20.20;10.83;;;-2.50;88.10;;;-2.07;65.00;98409.63;5007821;28;20165;-48
2021/12/22 03:46:12;;;;;;;19.83;12.10;;;-2.60;88.10;;;-2.07;64.31;98409.63;5006828;28;20046;-46
2021/12/22 03:48:41;;;;;;;19.23;11.13;;;-2.50;88.20;;;-2.05;64.85;98413.84;5007736;28;20052;-47
2021/12/22 03:51:09;;;;;;;20.00;11.50;;;-2.50;87.80;;;-2.04;64.89;98415.53;5008695;28;20060;-47
2021/12/22 03:53:37;;;;;;;20.07;10.57;;;-2.50;88.10;;;-2.03;64.51;98414.63;5008797;28;20240;-49
2021/12/22 03:56:05;;;;;;;21.80;11.40;;;-2.40;87.20;;;-2.03;64.27;98416.41;5006617;28;20229;-47
2021/12/22 03:58:33;;;;;;;22.10;11.67;;;-2.40;87.00;;;-2.01;64.80;98427.63;5007308;28;20063;-50
2021/12/22 04:01:01;;;;;;;24.93;13.53;;;-2.40;86.40;;;-2.03;64.19;98417.25;5008228;28;20050;-48
2021/12/22 04:03:33;;;;;;;20.53;11.70;;;-2.40;85.90;;;-2.04;64.42;98420.75;5008161;28;20058;-49
2021/12/22 04:06:03;;;;;;;21.67;11.77;;;-2.40;85.40;;;-2.05;63.99;98421.69;5007333;28;20256;-48
2021/12/22 04:08:31;;;;;;;22.73;12.10;;;-2.50;85.10;;;-2.07;64.00;98417.44;5007056;28;20046;-50
2021/12/22 04:10:59;;;;;;;24.30;12.30;;;-2.50;85.00;;;-2.11;63.66;98410.63;5007723;28;20245;-47
2021/12/22 04:13:27;;;;;;;19.97;11.87;;;-2.50;84.30;;;-2.14;64.13;98405.56;5006901;28;20079;-49
2021/12/22 04:15:55;;;;;;;19.50;10.67;;;-2.60;84.20;;;-2.20;63.99;98409.25;5005946;28;20061;-49
2021/12/22 04:18:23;;;;;;;19.97;10.87;;;-2.60;85.00;;;-2.22;64.32;98403.25;5006470;28;20053;-50
2021/12/22 04:20:51;;;;;;;18.90;10.87;;;-2.70;85.70;;;-2.23;63.83;98404.16;5008803;28;20058;-47
2021/12/22 04:23:19;;;;;;;18.27;10.90;;;-2.70;86.20;;;-2.24;64.20;98399.88;5007486;28;20046;-48
2021/12/22 04:25:47;;;;;;;17.83;10.97;;;-2.70;86.70;;;-2.27;64.16;98398.25;5007540;28;20060;-47
2021/12/22 04:28:15;;;;;;;18.30;11.63;;;-2.80;87.10;;;-2.28;64.34;98400.91;5007331;28;20079;-49
2021/12/22 04:30:49;;;;;;;19.20;11.77;;;-2.80;87.40;;;-2.31;64.48;98394.03;5008723;28;20060;-47
2021/12/22 04:33:19;;;;;;;37.85;19.48;;;-2.70;87.80;;;-2.33;64.28;98388.03;4990977;28;20056;-50
2021/12/22 04:35:50;;;;;;;34.60;17.03;;;-2.80;87.70;;;-2.32;64.92;98384.53;5007835;28;20280;-49
2021/12/22 04:38:19;;;;;;;46.47;22.57;;;-2.70;88.00;;;-2.33;64.54;98390.66;5007275;28;20361;-47
2021/12/22 04:40:47;;;;;;;80.77;35.13;;;-2.80;87.60;;;-2.34;64.54;98382.91;5007075;28;20076;-47
2021/12/22 04:43:15;;;;;;;44.60;22.23;;;-2.80;88.00;;;-2.33;64.50;98381.97;5006129;28;20056;-49
2021/12/22 04:45:43;;;;;;;33.37;17.17;;;-2.80;87.80;;;-2.33;64.57;98382.81;5007048;28;20057;-48
2021/12/22 04:48:11;;;;;;;33.80;17.60;;;-2.70;88.30;;;-2.31;65.04;98377.56;5005739;28;20072;-46
2021/12/22 04:50:39;;;;;;;38.00;19.40;;;-2.80;88.40;;;-2.28;64.90;98375.66;5009312;28;20053;-47
2021/12/22 04:53:15;;;;;;;35.53;17.93;;;-2.70;88.00;;;-2.29;64.41;98379.16;5010977;28;20046;-47
2021/12/22 04:55:43;;;;;;;31.33;14.17;;;-2.80;87.60;;;-2.32;64.84;98373.25;5010851;28;20060;-49
2021/12/22 04:58:11;;;;;;;27.27;14.40;;;-2.70;88.20;;;-2.31;64.89;98372.34;5009560;28;20336;-46
2021/12/22 05:00:40;;;;;;;44.63;23.63;;;-2.70;88.00;;;-2.31;64.51;98374.94;5011228;28;20057;-50
2021/12/22 05:03:08;;;;;;;42.30;22.63;;;-2.70;88.00;;;-2.32;64.32;98381.94;5011232;28;20717;-51
2021/12/22 05:05:36;;;;;;;52.63;25.17;;;-2.70;88.20;;;-2.37;64.69;98384.69;5010886;28;20048;-49
2021/12/22 05:08:04;;;;;;;41.13;21.90;;;-2.80;87.80;;;-2.41;64.60;98387.50;5009598;28;20054;-49
2021/12/22 05:10:32;;;;;;;50.47;22.57;;;-2.90;88.30;;;-2.42;65.02;98380.63;5009176;28;20053;-51
2021/12/22 05:13:00;;;;;;;28.77;18.07;;;-2.90;88.10;;;-2.44;64.35;98378.06;5011328;28;20054;-47
2021/12/22 05:15:36;;;;;;;26.43;14.80;;;-2.90;87.90;;;-2.46;64.85;98384.22;5011691;28;20052;-49
2021/12/22 05:18:23;;;;;;;26.60;14.53;;;-2.90;88.10;;;-2.47;64.64;98383.38;5009468;28;20058;-48
2021/12/22 05:20:53;;;;;;;28.70;16.20;;;-2.90;88.30;;;-2.51;64.66;98397.47;5010146;28;20264;-48
2021/12/22 05:23:21;;;;;;;25.60;13.17;;;-3.00;88.40;;;-2.53;64.55;98399.28;5011389;28;20068;-47
2021/12/22 05:25:49;;;;;;;26.13;13.30;;;-3.00;88.50;;;-2.52;64.92;98393.19;5010507;28;20072;-50
2021/12/22 05:28:17;;;;;;;21.67;13.00;;;-3.00;88.50;;;-2.54;64.55;98394.97;5010650;28;20057;-47
2021/12/22 05:30:47;;;;;;;22.63;13.10;;;-3.00;88.60;;;-2.56;64.73;98399.41;5010911;28;20054;-48
2021/12/22 05:33:14;;;;;;;26.20;15.27;;;-3.00;88.50;;;-2.55;64.81;98398.50;5009428;28;20068;-48
2021/12/22 05:35:42;;;;;;;24.97;15.33;;;-3.00;89.00;;;-2.53;64.74;98404.50;5010441;28;20046;-46
2021/12/22 05:38:11;;;;;;;20.87;12.77;;;-3.00;88.40;;;-2.55;64.54;98406.31;5009556;28;20052;-50
2021/12/22 05:40:39;;;;;;;19.70;12.43;;;-3.00;88.60;;;-2.54;65.07;98417.59;5010618;28;20071;-47
2021/12/22 05:43:09;;;;;;;22.20;12.50;;;-3.00;88.70;;;-2.55;64.79;98406.31;5009961;28;20052;-50
2021/12/22 05:45:37;;;;;;;22.70;13.57;;;-3.00;88.70;;;-2.55;64.92;98408.09;5010063;28;20225;-51
2021/12/22 05:48:05;;;;;;;26.97;13.23;;;-3.00;88.30;;;-2.57;64.49;98400.31;5010530;28;20356;-47
2021/12/22 05:50:34;;;;;;;23.97;13.00;;;-3.00;88.30;;;-2.57;65.16;98402.94;5009492;28;20048;-49
2021/12/22 05:53:02;;;;;;;23.77;12.83;;;-3.00;88.20;;;-2.59;65.13;98397.78;5007661;28;20054;-47
2021/12/22 05:55:30;;;;;;;23.87;11.70;;;-3.10;88.50;;;-2.61;64.55;98406.56;5009846;28;20046;-47
2021/12/22 05:57:58;;;;;;;23.70;12.90;;;-3.10;88.30;;;-2.59;64.49;98405.59;5009852;28;20067;-48
2021/12/22 06:00:26;;;;;;;25.60;12.67;;;-3.10;88.60;;;-2.57;64.85;98403.78;5010754;28;20336;-50
2021/12/22 06:02:54;;;;;;;24.30;13.70;;;-3.00;88.80;;;-2.52;64.65;98402.72;5009557;28;20256;-47
2021/12/22 06:05:22;;;;;;;27.93;14.23;;;-2.90;88.10;;;-2.54;64.78;98392.34;5009823;28;20053;-47
2021/12/22 06:07:50;;;;;;;21.10;12.23;;;-3.00;87.60;;;-2.53;64.81;98396.69;5009217;28;20407;-48
2021/12/22 06:10:17;;;;;;;29.87;16.03;;;-2.90;88.10;;;-2.51;64.74;98396.63;5010117;28;20084;-47
2021/12/22 06:12:45;;;;;;;42.30;20.70;;;-2.90;87.80;;;-2.51;64.52;98394.84;5010151;28;20050;-48
2021/12/22 06:15:13;;;;;;;62.53;27.20;;;-2.90;87.70;;;-2.50;64.28;98393.09;5009643;28;20072;-47
2021/12/22 06:17:41;;;;;;;82.47;34.23;;;-2.90;87.60;;;-2.51;65.01;98391.41;5009420;28;20057;-48
2021/12/22 06:20:10;;;;;;;32.27;17.53;;;-2.90;87.50;;;-2.51;64.67;98391.41;5010292;28;20046;-49
2021/12/22 06:22:38;;;;;;;22.80;13.07;;;-3.00;87.70;;;-2.49;64.61;98387.81;5009797;28;20247;-47
2021/12/22 06:25:06;;;;;;;21.73;12.20;;;-2.90;87.60;;;-2.49;64.81;98384.38;5008930;28;20060;-50
2021/12/22 06:27:34;;;;;;;23.17;13.57;;;-2.90;87.70;;;-2.43;65.05;98389.34;5009392;28;20056;-50
2021/12/22 06:30:03;;;;;;;23.80;12.53;;;-2.80;87.10;;;-2.42;64.53;98394.50;5010066;28;20056;-51
2021/12/22 06:32:31;;;;;;;20.80;11.30;;;-2.80;87.30;;;-2.39;65.15;98396.97;5009569;28;20061;-47
2021/12/22 06:34:59;;;;;;;23.57;12.00;;;-2.70;86.70;;;-2.37;64.70;98400.34;5007825;28;20057;-48
2021/12/22 06:37:27;;;;;;;21.20;13.23;;;-2.70;86.10;;;-2.38;64.55;98398.66;5008337;28;20045;-50
2021/12/22 06:39:55;;;;;;;21.13;12.20;;;-2.80;85.80;;;-2.41;64.37;98396.16;5009036;28;20401;-48
2021/12/22 06:42:23;;;;;;;23.83;12.97;;;-2.90;86.40;;;-2.45;64.55;98399.81;5009569;28;20054;-46
2021/12/22 06:44:51;;;;;;;22.10;10.97;;;-3.00;85.80;;;-2.52;64.29;98394.91;5008368;28;20049;-49
2021/12/22 06:47:19;;;;;;;18.53;11.40;;;-3.10;85.90;;;-2.57;64.27;98397.72;5006760;28;20050;-48
2021/12/22 06:49:47;;;;;;;21.47;12.10;;;-3.10;86.00;;;-2.65;64.35;98398.03;5009170;28;20049;-51
2021/12/22 06:52:15;;;;;;;20.33;12.07;;;-3.20;85.80;;;-2.68;64.17;98392.91;5008765;28;20054;-50
2021/12/22 06:54:43;;;;;;;23.03;11.83;;;-3.20;86.00;;;-2.73;64.51;98405.31;5009036;28;20340;-52
2021/12/22 06:58:03;;;;;;;20.47;11.50;;;-3.30;85.60;;;-2.78;64.49;98399.41;5008384;28;20056;-53
2021/12/22 07:00:31;;;;;;;22.23;12.10;;;-3.30;86.00;;;-2.79;64.17;98395.13;5009292;28;20053;-53
2021/12/22 07:02:59;;;;;;;17.63;10.97;;;-3.30;85.60;;;-2.82;64.10;98392.63;5008872;28;20064;-53
2021/12/22 07:05:27;;;;;;;20.97;12.23;;;-3.30;85.40;;;-2.85;64.26;98384.91;5006307;28;20054;-54
2021/12/22 07:07:55;;;;;;;17.30;11.17;;;-3.40;86.10;;;-2.83;64.60;98393.50;5007470;28;20063;-53
2021/12/22 07:10:23;;;;;;;20.00;11.60;;;-3.30;85.60;;;-2.85;64.35;98397.94;5008453;28;20239;-49
2021/12/22 07:12:51;;;;;;;25.27;12.07;;;-3.30;86.10;;;-2.88;64.23;98401.53;5007476;28;20060;-51
2021/12/22 07:15:19;;;;;;;20.60;11.40;;;-3.30;85.90;;;-2.87;64.01;98402.34;5007721;28;20053;-51
2021/12/22 07:17:50;;;;;;;20.50;12.43;;;-3.40;86.00;;;-2.87;64.37;98416.25;5008443;28;20259;-53
2021/12/22 07:20:19;;;;;;;23.50;12.27;;;-3.30;86.10;;;-2.86;64.32;98427.53;5009290;28;20069;-52
2021/12/22 07:22:48;;;;;;;23.40;12.53;;;-3.30;86.00;;;-2.90;64.23;98424.19;5007369;28;20061;-51
2021/12/22 07:25:18;;;;;;;25.77;12.50;;;-3.30;86.00;;;-2.88;64.04;98427.56;5008811;28;20049;-49
2021/12/22 07:27:46;;;;;;;19.80;12.53;;;-3.30;86.10;;;-2.88;64.10;98427.56;5007137;28;20371;-49
2021/12/22 07:30:14;;;;;;;27.23;14.47;;;-3.40;85.70;;;-2.88;64.03;98431.94;5007799;28;20080;-48
2021/12/22 07:32:42;;;;;;;27.47;16.77;;;-3.40;85.80;;;-2.90;64.20;98442.44;5008893;28;20385;-54
2021/12/22 07:35:18;;;;;;;26.73;15.90;;;-3.40;85.30;;;-2.94;64.06;98440.84;5007724;28;20341;-51
2021/12/22 07:38:31;;;;;;;22.57;13.40;;;-3.40;84.70;;;-3.00;63.82;98447.13;5006890;28;20383;-51
2021/12/22 07:41:14;;;;;;;21.63;12.30;;;-3.50;85.40;;;-3.00;64.13;98443.69;5007259;28;20062;-48
2021/12/22 07:43:42;;;;;;;29.00;14.90;;;-3.50;85.60;;;-3.01;64.32;98442.81;5007986;28;20061;-47
2021/12/22 07:46:10;;;;;;;28.43;14.83;;;-3.50;85.90;;;-2.98;64.36;98434.06;5007908;28;20352;-52
2021/12/22 07:48:38;;;;;;;28.57;13.83;;;-3.50;86.00;;;-2.94;64.52;98443.44;5007949;28;20054;-48
2021/12/22 07:51:06;;;;;;;25.27;13.77;;;-3.40;86.10;;;-2.92;64.46;98440.78;5008127;28;20264;-52
2021/12/22 07:53:34;;;;;;;23.57;13.80;;;-3.30;86.50;;;-2.87;64.50;98447.53;5007823;28;20054;-52
2021/12/22 07:56:03;;;;;;;21.17;13.07;;;-3.30;86.10;;;-2.84;64.47;98450.00;5007321;28;20057;-46
2021/12/22 07:58:31;;;;;;;22.70;12.73;;;-3.20;85.70;;;-2.81;64.24;98449.03;5007716;28;20053;-48
2021/12/22 08:00:59;;;;;;;25.63;12.70;;;-3.20;85.40;;;-2.80;64.38;98445.53;5008431;28;20232;-48
2021/12/22 08:03:28;;;;;;;21.10;12.13;;;-3.20;85.50;;;-2.79;64.34;98448.09;5007642;28;20435;-48
2021/12/22 08:06:10;;;;;;;22.87;13.00;;;-3.20;85.40;;;-2.75;64.46;98450.56;5006316;28;20054;-47
2021/12/22 08:08:39;;;;;;;22.57;12.03;;;-3.10;85.20;;;-2.71;64.00;98457.38;5007790;28;20060;-48
2021/12/22 08:11:07;;;;;;;25.47;13.93;;;-3.10;85.30;;;-2.69;64.24;98450.34;5007257;28;20054;-48
2021/12/22 08:13:35;;;;;;;24.30;13.03;;;-3.00;85.20;;;-2.68;64.24;98452.03;5007312;28;20042;-48
2021/12/22 08:16:03;;;;;;;24.40;13.33;;;-3.00;84.70;;;-2.67;64.47;98451.13;5008095;28;20053;-47
2021/12/22 08:18:31;;;;;;;20.00;12.23;;;-3.10;84.90;;;-2.66;64.07;98445.00;5008589;28;20064;-47
2021/12/22 08:20:59;;;;;;;22.80;11.73;;;-3.10;85.00;;;-2.64;64.01;98453.59;5007930;28;20354;-50
2021/12/22 08:23:32;;;;;;;26.20;13.63;;;-3.00;85.00;;;-2.61;64.12;98458.72;5006913;28;20359;-47
2021/12/22 08:26:00;;;;;;;23.47;12.10;;;-3.00;85.00;;;-2.61;64.21;98454.34;5007572;28;20046;-49
2021/12/22 08:28:28;;;;;;;22.63;12.83;;;-3.00;84.90;;;-2.57;64.08;98453.31;5007668;28;20209;-49
2021/12/22 08:30:56;;;;;;;23.00;12.00;;;-2.90;85.10;;;-2.55;64.11;98447.19;5008652;28;20049;-49
2021/12/22 08:33:27;;;;;;;22.80;12.63;;;-2.90;84.60;;;-2.52;64.08;98437.50;5007479;28;20068;-47
2021/12/22 08:38:53;;;;;;;21.53;11.90;;;-2.80;84.90;;;-2.47;64.15;98432.94;5007087;28;20378;-48
2021/12/22 08:41:28;;;;;;;24.87;11.70;;;-2.80;84.70;;;-2.43;64.47;98434.50;5007718;28;20056;-50
2021/12/22 08:44:00;;;;;;;25.93;12.27;;;-2.70;85.00;;;-2.38;64.81;98423.91;5006874;28;20225;-46
2021/12/22 08:46:29;;;;;;;19.90;11.33;;;-2.60;84.50;;;-2.31;64.31;98432.31;5007739;28;20038;-47
2021/12/22 08:48:58;;;;;;;23.43;12.40;;;-2.60;84.00;;;-2.27;64.33;98426.06;5007389;28;20088;-46
2021/12/22 08:51:26;;;;;;;21.90;13.23;;;-2.60;83.70;;;-2.23;64.51;98427.63;5007143;28;20054;-50
2021/12/22 08:53:54;;;;;;;19.57;11.17;;;-2.50;84.00;;;-2.18;64.49;98421.31;5007036;28;20056;-48
2021/12/22 08:56:23;;;;;;;21.40;12.10;;;-2.40;83.80;;;-2.13;64.69;98422.91;5006876;28;20352;-47
2021/12/22 08:58:51;;;;;;;19.13;11.43;;;-2.40;83.70;;;-2.11;64.26;98414.13;5005338;28;20348;-47
2021/12/22 09:01:19;;;;;;;21.97;9.73;;;-2.30;84.10;;;-2.09;63.83;98408.84;5015784;28;20048;-49
2021/12/22 09:03:47;;;;;;;18.20;10.83;;;-2.20;82.80;;;-2.03;64.31;98411.19;5016238;28;20042;-50
2021/12/22 09:06:17;;;;;;;20.40;11.20;;;-2.20;82.50;;;-2.00;63.62;98418.88;5014855;28;20049;-48
2021/12/22 09:08:46;;;;;;;22.50;12.60;;;-2.30;82.60;;;-1.96;64.11;98423.03;5013926;28;20045;-46
2021/12/22 09:11:15;;;;;;;22.23;12.23;;;-2.20;82.10;;;-1.93;64.21;98422.09;5007069;28;20125;-47
2021/12/22 09:13:43;;;;;;;24.27;13.47;;;-2.20;82.50;;;-1.90;64.38;98427.16;5018714;28;20372;-47
2021/12/22 09:16:11;;;;;;;22.70;12.23;;;-2.10;82.70;;;-1.87;63.74;98421.81;5018314;28;20247;-51
2021/12/22 09:18:40;;;;;;;21.83;11.90;;;-2.10;82.60;;;-1.85;63.95;98420.84;5017159;28;20049;-48
2021/12/22 09:21:11;;;;;;;21.20;11.60;;;-2.10;82.40;;;-1.83;63.73;98429.44;5017255;28;20054;-50
2021/12/22 09:23:39;;;;;;;20.87;12.53;;;-2.00;82.00;;;-1.80;63.87;98421.50;5016804;28;20056;-49
2021/12/22 09:26:08;;;;;;;23.30;13.37;;;-2.00;83.00;;;-1.74;64.46;98432.59;5014700;28;20052;-46
2021/12/22 09:28:36;;;;;;;24.67;13.77;;;-2.00;82.20;;;-1.74;64.47;98422.16;5014351;28;20424;-46
2021/12/22 09:31:05;;;;;;;28.87;14.80;;;-2.00;82.60;;;-1.68;64.77;98427.13;5014853;28;20038;-47
2021/12/22 09:33:34;;;;;;;25.27;12.77;;;-1.90;82.60;;;-1.65;63.91;98424.34;5017210;28;20252;-48
2021/12/22 09:36:06;;;;;;;28.30;14.17;;;-1.80;82.40;;;-1.61;64.44;98420.69;5017627;28;20248;-47
2021/12/22 09:38:35;;;;;;;29.30;13.83;;;-1.80;82.50;;;-1.56;64.39;98417.91;5015747;28;20058;-46
2021/12/22 09:41:04;;;;;;;26.63;14.77;;;-1.80;82.50;;;-1.53;64.62;98407.31;5011807;28;20045;-49
2021/12/22 09:43:33;;;;;;;24.03;13.43;;;-1.70;82.70;;;-1.50;63.87;98408.03;5009980;28;20259;-50
2021/12/22 09:46:06;;;;;;;24.43;13.03;;;-1.70;82.50;;;-1.46;63.63;98413.97;5009066;28;20056;-48
2021/12/22 09:53:51;;;;;;;29.73;12.83;;;-1.60;82.60;;;-1.36;64.31;98411.78;5010057;28;20050;-49
2021/12/22 09:56:27;;;;;;;24.53;13.30;;;-1.60;82.40;;;-1.35;64.00;98403.06;5010194;28;20052;-46
2021/12/22 09:58:55;;;;;;;22.70;13.30;;;-1.60;82.60;;;-1.34;64.32;98416.03;5010409;28;20052;-48
2021/12/22 10:01:25;;;;;;;32.20;14.63;;;-1.60;82.60;;;-1.28;64.31;98415.78;5011046;28;20056;-46
2021/12/22 10:03:57;;;;;;;24.37;12.50;;;-1.50;82.50;;;-1.24;64.21;98409.50;5008498;28;20058;-46
2021/12/22 10:06:27;;;;;;;21.10;12.07;;;-1.50;82.40;;;-1.22;64.07;98405.03;5008683;28;20256;-46
2021/12/22 10:09:03;;;;;;;25.57;12.53;;;-1.40;82.10;;;-1.15;64.62;98402.16;5009312;28;20052;-49
2021/12/22 10:11:40;;;;;;;20.70;11.87;;;-1.40;81.90;;;-1.12;63.73;98404.63;5024608;28;20056;-48
2021/12/22 10:14:27;;;;;;;21.10;11.97;;;-1.30;81.80;;;-1.06;63.78;98402.56;5009796;28;20054;-48
2021/12/22 10:16:56;;;;;;;20.10;12.33;;;-1.30;81.40;;;-1.04;63.76;98390.28;5009399;28;20054;-46
2021/12/22 10:19:26;;;;;;;21.00;12.77;;;-1.40;81.50;;;-1.00;64.25;98391.84;5010258;28;20046;-46
2021/12/22 10:22:04;;;;;;;20.80;12.87;;;-1.20;81.80;;;-0.97;63.81;98384.75;5009648;28;20064;-46
2021/12/22 10:24:39;;;;;;;21.47;11.67;;;-1.20;81.80;;;-0.92;63.71;98386.25;5011259;28;20351;-50
2021/12/22 10:27:22;;;;;;;23.03;13.63;;;-1.10;81.70;;;-0.88;64.32;98366.88;5009406;28;20117;-46
2021/12/22 10:29:49;;;;;;;23.47;14.17;;;-1.10;81.30;;;-0.85;64.13;98365.91;5008597;28;20053;-46
2021/12/22 10:32:17;;;;;;;24.37;13.83;;;-1.10;81.70;;;-0.81;64.03;98363.06;5008930;28;20068;-47
2021/12/22 10:35:05;;;;;;;20.83;12.53;;;-1.10;81.70;;;-0.78;64.38;98363.84;5008293;28;20053;-46
2021/12/22 10:37:42;;;;;;;19.80;11.43;;;-1.00;80.80;;;-0.73;64.48;98356.63;5009285;28;20049;-46
2021/12/22 10:40:28;;;;;;;24.20;13.03;;;-1.00;81.20;;;-0.70;64.40;98346.88;5008905;28;20058;-49
2021/12/22 10:42:57;;;;;;;20.43;11.53;;;-0.90;81.20;;;-0.64;64.40;98353.56;5008543;28;20042;-47
2021/12/22 10:45:28;;;;;;;20.87;11.13;;;-0.80;81.30;;;-0.62;63.98;98351.72;5008707;28;20052;-47
2021/12/22 10:50:50;;;;;;;21.23;12.50;;;-0.80;80.60;;;-0.56;63.37;98353.19;5005834;28;20058;-46